Loisir ou Compétition : Rejoignez un Club de la Fédération

Résultats

SAMSE NATIONAL TOUR FFS 2

AUTRANS

FS Hommes

Jury de Compétition

Délégué Technique :
FOURNIER YVES (DA)
D.T. Adjoint :
GALLIN LIONEL (DA)
Dir. Epreuve :
GAILLARD LILIAN (DA)

Caractéristiques de la Piste

Piste :
REPLIS
Distance :
7.5 km
Point Haut :
 
Point Bas :
 
Montée Tot. :
 
Montée Max. :
 
Homologation :
 

Pénalité Appliquée :
90.0000
Coefficient :
800

Catégorie :
U17
Style :
C
Clt Dos Clt/Cat Code An Nom Prénom Com Club Temps Ecart Points
Classés
1 100 1/U17 FFS2663675 2003 ESSONNIER IVAN SA CS LA FECLAZ 19:21.0 00:00.0 90.00
2 99 2/U17 FFS2670987 2003 VAUTHIER MATHURIN MV LA BRESSAUDE 19:48.1 00:27.1 108.67
3 92 3/U17 FFS2675463 2003 MISSILLIER CONSTANT MB SC GD BORNAN 19:53.0 00:32.0 112.05
4 4 4/U17 FFS2666640 2004 LAISSUS MILHAN SA SC MENUIRES 20:06.7 00:45.7 121.49
5 72 5/U17 FFS2664151 2004 CAILLOT FELIX DA SA MEAUDRAIS 20:08.2 00:47.2 122.52
6 88 6/U17 FFS2658355 2004 DOUILLET BAPTISTE DA SN CHARTROUS 20:08.5 00:47.5 122.73
7 77 7/U17 FFS2676437 2003 BAVEREL PIERRE MJ ES SAUGETTE 20:18.5 00:57.5 129.62
8 97 8/U17 FFS2682382 2003 BOURGON JULES MJ SC VERRIERES 20:20.1 00:59.1 130.72
9 74 9/U17 FFS2661951 2004 SEROT HUGO SA SC BOZEL 20:27.4 01:06.4 135.75
10 71 10/U17 FFS2659939 2004 PORRET EMIL DA US AUTRANNAI 20:30.6 01:09.6 137.96
11 84 11/U17 FFS2664168 2004 VINCENT LENNIE MJ SKI ROUSSES 20:38.8 01:17.8 143.61
12 47 12/U17 FFS2658787 2004 GAULIER AUBIN DA CS VILLARD 20:39.3 01:18.3 143.95
13 70 13/U17 FFS2681664 2004 PERROUD DORIAN MB SCNP ROCHOIS 20:39.6 01:18.6 144.16
14 75 14/U17 FFS2676994 2004 GENEST NOA AU SC MEZENC 20:40.1 01:19.1 144.50
15 73 15/U17 FFS2661244 2003 VERGNOLLE TITOUAN DA SN CHARTROUS 20:41.5 01:20.5 145.47
16 85 16/U17 FFS2665846 2004 SAGE MARTIN DA SN CHARTROUS 20:44.8 01:23.8 147.74
17 82 17/U17 FFS2656732 2003 BLANC MATHIEU SA CS MERIBEL 20:47.7 01:26.7 149.74
18 91 18/U17 FFS2671811 2003 TYRODE JOSSE MJ SC LESFOURGS 20:49.7 01:28.7 151.12
19 5 19/U17 FFS2681320 2004 LEBARD JAN MB DRAGONS ANNY 20:51.6 01:30.6 152.43
20 79 20/U17 FFS2665667 2003 SCHULTZ PAUL LY SC LE POIZAT 20:55.6 01:34.6 155.19
21 87 21/U17 FFS2661562 2003 CHATEAUNEUF OSCAR MJ BOIS D'AMONT 21:00.8 01:39.8 158.77
22 8 22/U17 FNL1420266 2004 VILARO ROC SP CATALOGNE 21:01.5 01:40.5 159.25
23 51 23/U17 FFS2681176 2003 VERDENET GASPARD MJ OYE-PALLET 21:10.7 01:49.7 165.59
24 78 24/U17 FFS2666711 2004 DONET GAETAN DA SA MEAUDRAIS 21:15.4 01:54.4 168.83
25 15 25/U17 FNL1420264 2003 SELLES BERNAT SP CATALOGNE 21:20.7 01:59.7 172.48
25 86 25/U17 FFS2681916 2003 BERROT MARTIN MJ OYE-PALLET 21:20.7 01:59.7 172.48
27 52 27/U17 FFS2658036 2003 BARON BAPTISTE MB CS LA CLUSAZ 21:20.8 01:59.8 172.55
28 83 28/U17 FFS2670858 2004 SICRE PAULIN AU EM LA TOUR 21:25.2 02:04.2 175.58
29 13 29/U17 FFS2705274 2004 BRYOEEN NILS OSCAR MB CS CHAMONIX 21:26.1 02:05.1 176.20
30 46 30/U17 FFS2676774 2004 PETIOT PAUL AP ES VALLOUISE 21:28.9 02:07.9 178.13
30 98 30/U17 FFS2670579 2003 ALLEMAND NEIL AP AS EDELWEISS 21:28.9 02:07.9 178.13
32 10 32/U17 FNL1020006 2004 BORREL ANIOL SP CATALOGNE 21:35.9 02:14.9 182.95
33 36 33/U17 FFS2680999 2004 GRAND JULIEN MJ SC GRANDVAUX 21:36.5 02:15.5 183.37
34 69 34/U17 FFS2665260 2004 TAGLIONE ENZO MJ SMBM/MORBIER 21:41.2 02:20.2 186.61
35 30 35/U17 FFS2687019 2004 LECOCQ CLEMENT AU CNAP 21:41.3 02:20.3 186.68
36 53 36/U17 FFS2677441 2004 BUET PIERRE LOIC MJ SMBM/MORBIER 21:46.4 02:25.4 190.19
37 54 37/U17 FFS2681263 2003 BOEUF LOAN DA SNB CHAMROUS 21:47.7 02:26.7 191.09
38 29 38/U17 FFS2675725 2003 BERGLEZ BORIS DA SNB CHAMROUS 21:52.1 02:31.1 194.12
39 38 39/U17 FFS2660505 2003 LECONTE VICTOR DA US AUTRANNAI 21:57.2 02:36.2 197.63
40 27 40/U17 FFS2681267 2003 BUNOZ BASILE DA SNB CHAMROUS 21:58.5 02:37.5 198.53
41 59 41/U17 FFS2686923 2004 JACQUES ALBAN MJ OYE-PALLET 21:59.3 02:38.3 199.08
42 31 42/U17 FFS2676581 2004 ROUX MATTEO AP MTGVE V.CLAR 21:59.5 02:38.5 199.22
43 44 43/U17 FFS2681280 2004 GIORDANENGO LOUIS DA SNB CHAMROUS 21:59.8 02:38.8 199.42
44 64 44/U17 FFS2667079 2003 CHENU EMMANUEL SA SC PEISEY VA 21:59.9 02:38.9 199.49
45 39 45/U17 FFS2681694 2004 REBOULLET TOM MJ HT JURA SKI 22:04.5 02:43.5 202.66
46 65 46/U17 FFS2665905 2004 MAGINI ELOHANN LY CS VALROMEY 22:07.9 02:46.9 205.00
47 81 47/U17 FFS2682515 2004 TOURNIER GABIN MJ ES SAUGETTE 22:13.6 02:52.6 208.93
48 1 48/U17 FFS2675687 2004 JULIEN JACQUEMET LOUIS DA SNO 22:15.8 02:54.8 210.45
49 63 49/U17 FFS2676127 2004 JARRIAND ELIO SA CS LA FECLAZ 22:16.0 02:55.0 210.59
50 35 50/U17 FFS2675595 2003 BOUVEROT ZIAN MB SC CONTAMINE 22:16.4 02:55.4 210.86
51 62 51/U17 FFS2686207 2004 CHOLVY ARTHUR AU CN ST JULIEN 22:18.2 02:57.2 212.10
52 16 52/U17 FFS2648791 2004 FORTINA ADAM MB SC CONTAMINE 22:18.3 02:57.3 212.17
53 50 53/U17 FFS2673533 2004 TUILLIERE ANDEOL AP LES TROLLS 22:22.8 03:01.8 215.27
54 17 54/U17 FFS2665219 2004 COSTE NIELS DA US AUTRANNAI 22:25.7 03:04.7 217.27
55 56 55/U17 FFS2686203 2004 MIGNOT BAPTISTE MJ SMBM/MORBIER 22:31.1 03:10.1 220.99
56 18 56/U17 FFS2670788 2004 BOUCAUD RAPHAEL DA US AUTRANNAI 22:31.8 03:10.8 221.47
57 9 57/U17 FFS2662962 2004 PANISSET SIMON MB SC GD BORNAN 22:32.0 03:11.0 221.61
58 19 58/U17 FFS2684607 2004 ADAM NINO MB CS CHAMONIX 22:34.3 03:13.3 223.20
59 6 59/U17 FFS2705258 2004 POGOSIAN SEROJA MJ SC MONT NOIR 22:35.0 03:14.0 223.68
60 28 60/U17 FFS2672940 2004 DUNBAR KRAY SA SC ARECHES 22:42.7 03:21.7 228.98
61 43 61/U17 FFS2686392 2004 WERNER JOCELYN MV LAC BLANC SN 22:44.8 03:23.8 230.43
62 40 62/U17 FFS2675750 2004 LAINE MARTIN DA SNB CHAMROUS 22:50.5 03:29.5 234.36
63 55 63/U17 FFS2686888 2004 PELLEGRINI NINO MJ OYE-PALLET 22:51.2 03:30.2 234.84
64 2 64/U17 FFS2678952 2004 FAVRE BONVIN TITOUAN MB SC GD BORNAN 22:53.7 03:32.7 236.56
65 60 65/U17 FFS2664963 2004 BOURDE MARTIN AU CNAP 22:57.2 03:36.2 238.98
66 49 66/U17 FFS2686357 2004 FAUVEL ROMAIN MV LAC BLANC SN 22:57.5 03:36.5 239.18
67 61 67/U17 FFS2686070 2004 PEAQUIN NATHANAEL SA CS LA FECLAZ 23:01.3 03:40.3 241.80
68 11 68/U17 FNL1560286 2003 GABARRO BERNAT SP CATALOGNE 23:02.4 03:41.4 242.56
69 24 69/U17 FFS2681798 2004 SAVOIE GASTON MJ HT JURA SKI 23:07.8 03:46.8 246.28
69 26 69/U17 FFS2675775 2004 SPETZ THOMAS DA SNB CHAMROUS 23:07.8 03:46.8 246.28
71 33 71/U17 FFS2677438 2004 GLAVIEUX GUSTAVE MJ SMBM/MORBIER 23:13.4 03:52.4 250.14
72 22 72/U17 FFS2666712 2004 LANGLAIS GASPARD DA CS VILLARD 23:16.2 03:55.2 252.07
73 57 73/U17 FFS2676116 2004 JACQUIER JUDICAEL SA CS LA FECLAZ 23:19.9 03:58.9 254.62
74 25 74/U17 FFS2665901 2004 JACQUET GAEL LY CS VALROMEY 23:21.1 04:00.1 255.44
75 37 75/U17 FFS2664007 2004 LERAY AWEN AU CNAP 23:21.9 04:00.9 255.99
76 23 76/U17 FFS2680602 2003 SCHOTT MATHIEU DA CS VILLARD 23:29.4 04:08.4 261.16
77 21 77/U17 FFS2675867 2004 LABBE ELIAN DA GUC GRENOBLE 23:54.0 04:33.0 278.11
78 14 78/U17 FFS2681002 2004 GONIN LEANDRE MB SC GD BORNAN 24:12.8 04:51.8 291.07
79 32 79/U17 FFS2677078 2004 SEVESSAND LOUP SA SC ARECHES 24:38.5 05:17.5 308.78
80 58 80/U17 FFS2670454 2003 LANCHAIS MARC SA CS LA FECLAZ 24:49.2 05:28.2 316.15
81 12 81/U17 FNL2051810424 2004 BALANOS ALEX SP CATALOGNE 25:15.5 05:54.5 334.27
82 3 82/U17 FFS2657361 2003 SCARPA ESTEBAN DA SNO 27:22.8 08:01.8 421.99
Abandons
7 FNL436315 2003 CARDONA NIL SP CATALOGNE
Non partants
34 FFS2670259 2004 BLANCHARD TITOUAN MB CS LA CLUSAZ
41 FFS2674515 2004 LANNE ANTOINE PE SC AZUN
42 FFS2681663 2004 LEVET GASTON MB SCNP ROCHOIS
45 FFS2688059 2004 GUYETAND BASTIEN PE MONT ARG PVG
48 FFS2677193 2004 BOEUF MERYL DA SNB CHAMROUS
66 FFS2676777 2004 FRIBOURG QUENTIN AP SAUZE BARCEL
67 FFS2677531 2004 RAULIN TIMOTHE AP ES VALLOUISE
68 FFS2666900 2004 JAN PIERRE MV GERARDMER SN
76 FFS2665222 2004 DEUFFIC CHARLY DA US AUTRANNAI
80 FFS2664692 2004 GROS MICHELE MB SC CONTAMINE
89 FFS2674908 2003 BRUNET JULIEN AP ORRES EMBRUN
90 FFS2675692 2004 LEUENBERGER LEO MV SC XONRUPT
93 FFS2675689 2003 MALGRAND HUGO MB PRAZ LYS-SOM
94 FFS2681218 2003 ROUTIN HUGO MB PRAZ LYS-SOM
95 FFS2670999 2003 BERNAUDON MATHIS AP MTGVE V.CLAR
96 FFS2658773 2003 MARSEILLE NATHAN AP GAP-BAYARD